Limon, CO

10:37 AM MDT on October 19, 2019 (GMT -0600)
Limon | | Change Station
Active Advisory: Fire Weather Watch

Elev 5394 ft 39.27 °N, 103.69 °W | Updated 9 seconds ago

Clear
Clear
55.2 °F
Feels Like 55.2 °F
N
2.9
Wind Variable Wind from SSW
Gusts 3.4 mph

Today
High -- | Low -- °F
--% Chance of Precip.
Yesterday
High -- | Low -- °F
Precip. -- in
Pressure 29.96 in
Visibility 10.0 miles
Clouds Clear
Dew Point 27 °F
Humidity 34%
Rainfall 0.00 in
Snow Depth Not available.
7:08 AM 6:10 PM
Waning Gibbous, 69% visible
METAR KLIC 191555Z AUTO 21013KT 10SM CLR 10/M03 A3000 RMK AO2 SLP144 T01001028
Pressure 29.96 in
Visibility 10.0 miles
Clouds Clear
Dew Point 27 °F
Humidity 34%
Rainfall 0.00 in
Snow Depth Not available.
7:08 AM 6:10 PM
Waning Gibbous, 69% visible
METAR KLIC 191555Z AUTO 21013KT 10SM CLR 10/M03 A3000 RMK AO2 SLP144 T01001028

Get Your Daily Forecast Email!

Thanks for signing up!

Be on the lookout for a verification email in your inbox.

You'll start receiving severe weather alerts in your inbox..

×

10-Day Weather Forecast

Almanac

Astronomy

Oct. 19, 2019 Rise Set
Actual Time
Civil Twilight
Nautical Twilight
Astronomical Twilight
Moon
Length of Visible Light
Length of Day
Tomorrow will be .
, % of the Moon is Illuminated

Today's Extremes

State Highs State Lows

Community

WunderPhotos

Category 6

Welcome to Category 6. This is the collective home for Weather Underground's featured writeups by Dr. Jeff Masters (right), Bob Henson (left), Chris Burt, and other regular contributors.

Nearby

Air Quality

  Air Quality AQ Index Pollutant
Not available.

Snow Depth

Station Depth Elevation

Earthquake Activity

City Distance Mag. Time & Date
Minimum magnitude displayed is 2.5.

Coastal Water Temperatures

Place Temperature

Stations

Nearby Weather Stations

Station Location Temp. Windchill Dew Point Humidity Wind Precip. Elev Updated Type
                   

Watches & Warnings

Fire Weather Watch
Issued: 5:35 AM MDT Oct. 19, 2019 – National Weather Service

... Fire Weather Watch remains in effect from Sunday morning
through Sunday evening for wind and low relative humidity for the
east Central Plains of Colorado along and south of the
I-70 corridor... fire weather zones 240... 241... and 245 through
247...

* affected area... fire weather zones 240... 241... 245... 246 and
247.

* Winds... northwest 20 to 30 mph with gusts up to 40 mph.

* Timing... mid morning Sunday through early Sunday evening.

* Relative humidity... as low as 16 percent.

* Impacts... the strong winds in combination with low humidities
under 20 percent will allow for quick spread of any grassland
fires. Open burning should not occur before or during these
conditions on Sunday.

Precautionary/preparedness actions...

A Fire Weather Watch means that critical fire weather conditions
are forecast to occur. Listen for later forecasts and possible
red flag warnings.